createdAt,value
2018-11-06T05:01:02.897Z,0.00
2018-11-06T05:02:02.820Z,0.00
2018-11-06T05:03:55.428Z,0.00
2018-11-06T05:04:55.318Z,0.00
2018-11-06T05:06:48.078Z,0.00
2018-11-06T05:07:47.882Z,0.00
2018-11-06T05:09:40.546Z,0.00
2018-11-06T05:10:40.437Z,0.00
2018-11-06T05:12:33.116Z,0.00
2018-11-06T05:13:32.987Z,0.00
2018-11-06T05:15:25.677Z,0.00
2018-11-06T05:16:25.544Z,0.00
2018-11-06T05:18:18.227Z,0.00
2018-11-06T05:19:18.097Z,0.00
2018-11-06T05:21:10.774Z,0.00
2018-11-06T05:22:10.650Z,0.00
2018-11-06T05:24:03.392Z,0.00
2018-11-06T05:25:03.250Z,0.00
2018-11-06T05:26:55.920Z,0.00
2018-11-06T05:27:55.812Z,0.00
2018-11-06T05:29:48.507Z,0.00
2018-11-06T05:30:48.370Z,0.00
2018-11-06T05:32:41.147Z,0.00
2018-11-06T05:33:40.927Z,0.00
2018-11-06T05:35:33.602Z,0.00
2018-11-06T05:36:33.478Z,0.00
2018-11-06T05:38:26.168Z,0.00
2018-11-06T05:39:26.093Z,0.00
2018-11-06T05:41:19.880Z,0.00
2018-11-06T05:42:18.590Z,0.00
2018-11-06T05:44:11.328Z,0.00
2018-11-06T05:45:11.142Z,0.00
2018-11-06T05:47:03.829Z,0.00
2018-11-06T05:48:03.689Z,0.00
2018-11-06T05:49:56.359Z,0.00
2018-11-06T05:50:56.241Z,0.00
2018-11-06T05:52:48.925Z,0.00
2018-11-06T05:53:48.801Z,0.00
2018-11-06T05:55:41.472Z,4.00
2018-11-06T05:56:41.367Z,0.00
2018-11-06T05:58:34.044Z,4.00
2018-11-06T05:59:33.917Z,0.00
2018-11-06T06:01:26.629Z,0.00
2018-11-06T06:02:26.523Z,4.00
2018-11-06T06:04:19.182Z,4.00
2018-11-06T06:05:19.020Z,4.00
2018-11-06T06:07:12.350Z,8.00
2018-11-06T06:08:12.083Z,8.00
2018-11-06T06:10:04.759Z,12.00
2018-11-06T06:11:04.718Z,16.00
2018-11-06T06:12:57.305Z,20.00
2018-11-06T06:13:57.190Z,24.00
2018-11-06T06:15:49.870Z,32.00
2018-11-06T06:16:49.836Z,36.00
2018-11-06T06:18:42.400Z,44.00
2018-11-06T06:19:42.289Z,52.00
2018-11-06T06:21:34.969Z,68.00
2018-11-06T06:22:34.903Z,72.00
2018-11-06T06:24:27.664Z,92.00
2018-11-06T06:25:27.397Z,108.00
2018-11-06T06:27:20.083Z,128.00
2018-11-06T06:28:20.001Z,144.00
2018-11-06T06:30:12.605Z,172.00
2018-11-06T06:31:12.512Z,184.00
2018-11-06T06:33:05.182Z,208.00
2018-11-06T06:34:05.046Z,212.00
2018-11-06T06:35:57.721Z,240.00
2018-11-06T06:36:57.642Z,256.00
2018-11-06T06:38:50.877Z,284.00
2018-11-06T06:39:50.674Z,292.00
2018-11-06T06:41:43.320Z,324.00
2018-11-06T06:42:43.236Z,336.00
2018-11-06T06:44:35.913Z,360.00
2018-11-06T06:45:35.770Z,380.00
2018-11-06T06:47:28.469Z,416.00
2018-11-06T06:48:28.399Z,432.00
2018-11-06T06:50:21.064Z,480.00
2018-11-06T06:51:20.927Z,504.00
2018-11-06T06:53:13.553Z,552.00
2018-11-06T06:54:13.522Z,584.00
2018-11-06T06:56:06.129Z,644.00
2018-11-06T06:57:06.000Z,676.00
2018-11-06T06:58:58.675Z,744.00
2018-11-06T06:59:58.557Z,780.00
2018-11-06T07:01:51.248Z,844.00
2018-11-06T07:02:51.117Z,876.00
2018-11-06T07:04:43.940Z,936.00
2018-11-06T07:05:43.672Z,964.00
2018-11-06T07:07:36.345Z,1016.00
2018-11-06T07:08:36.211Z,1052.00
2018-11-06T07:10:28.882Z,1116.00
2018-11-06T07:11:28.765Z,1152.00
2018-11-06T07:13:21.954Z,1240.00
2018-11-06T07:14:21.819Z,1292.00
2018-11-06T07:16:14.482Z,1384.00
2018-11-06T07:17:14.368Z,1428.00
2018-11-06T07:19:07.053Z,1508.00
2018-11-06T07:20:06.922Z,1552.00
2018-11-06T07:21:59.585Z,1616.00
2018-11-06T07:22:59.472Z,1644.00
2018-11-06T07:24:52.349Z,1668.00
2018-11-06T07:25:52.226Z,1684.00
2018-11-06T07:27:44.884Z,1708.00
2018-11-06T07:28:44.806Z,1712.00
2018-11-06T07:30:37.467Z,1732.00
2018-11-06T07:31:37.330Z,1756.00
2018-11-06T07:33:29.993Z,1804.00
2018-11-06T07:34:29.948Z,1844.00
2018-11-06T07:36:22.575Z,1944.00
2018-11-06T07:37:22.447Z,2004.00
2018-11-06T07:39:15.268Z,2108.00
2018-11-06T07:40:14.998Z,2164.00
2018-11-06T07:42:07.693Z,2220.00
2018-11-06T07:43:07.558Z,2248.00
2018-11-06T07:45:00.229Z,2288.00
2018-11-06T07:46:00.113Z,2292.00
2018-11-06T07:47:52.809Z,2348.00
2018-11-06T07:48:52.682Z,2396.00
2018-11-06T07:50:45.345Z,2512.00
2018-11-06T07:51:45.239Z,2572.00
2018-11-06T07:53:37.928Z,2676.00
2018-11-06T07:54:37.792Z,2732.00
2018-11-06T07:56:30.475Z,2840.00
2018-11-06T07:57:30.349Z,2876.00
2018-11-06T07:59:23.029Z,2948.00
2018-11-06T08:00:22.898Z,2972.00
2018-11-06T08:02:15.570Z,2992.00
2018-11-06T08:03:15.456Z,3000.00
2018-11-06T08:05:08.137Z,3056.00
2018-11-06T08:06:08.058Z,3112.00
2018-11-06T08:08:00.675Z,3224.00
2018-11-06T08:09:00.564Z,3280.00
2018-11-06T08:10:53.247Z,3400.00
2018-11-06T08:11:53.125Z,3468.00
2018-11-06T08:13:45.799Z,3572.00
2018-11-06T08:14:45.785Z,3616.00
2018-11-06T08:16:38.368Z,3640.00
2018-11-06T08:17:38.237Z,3660.00
2018-11-06T08:19:30.925Z,3784.00
2018-11-06T08:20:30.871Z,3888.00
2018-11-06T08:22:23.460Z,4056.00
2018-11-06T08:23:23.358Z,4136.00
2018-11-06T08:25:16.042Z,4256.00
2018-11-06T08:26:15.912Z,4248.00
2018-11-06T08:28:08.580Z,4236.00
2018-11-06T08:29:08.466Z,4228.00
2018-11-06T08:31:01.556Z,4204.00
2018-11-06T08:32:01.262Z,4224.00
2018-11-06T08:33:53.698Z,4348.00
2018-11-06T08:34:53.592Z,4420.00
2018-11-06T08:36:46.332Z,4532.00
2018-11-06T08:37:46.156Z,4572.00
2018-11-06T08:39:38.825Z,4716.00
2018-11-06T08:40:38.717Z,4852.00
2018-11-06T08:42:31.448Z,5020.00
2018-11-06T08:43:31.271Z,5044.00
2018-11-06T08:45:23.936Z,5012.00
2018-11-06T08:46:23.831Z,5076.00
2018-11-06T08:48:16.521Z,4976.00
2018-11-06T08:49:16.383Z,5072.00
2018-11-06T08:51:09.058Z,5172.00
2018-11-06T08:52:08.948Z,5144.00
2018-11-06T08:54:01.635Z,4992.00
2018-11-06T08:55:01.512Z,5012.00
2018-11-06T08:56:54.191Z,5148.00
2018-11-06T08:57:54.069Z,5196.00
2018-11-06T08:59:46.784Z,5208.00
2018-11-06T09:00:46.629Z,5224.00
2018-11-06T09:02:39.861Z,5300.00
2018-11-06T09:03:39.695Z,5324.00
2018-11-06T09:05:32.385Z,5376.00
2018-11-06T09:06:32.255Z,5396.00
2018-11-06T09:08:24.948Z,5284.00
2018-11-06T09:09:24.833Z,5240.00
2018-11-06T09:11:17.527Z,5056.00
2018-11-06T09:12:17.417Z,4912.00
2018-11-06T09:14:10.068Z,4896.00
2018-11-06T09:15:09.954Z,4924.00
2018-11-06T09:17:02.711Z,5008.00
2018-11-06T09:18:02.514Z,5044.00
2018-11-06T09:19:55.189Z,5092.00
2018-11-06T09:20:55.075Z,5100.00
2018-11-06T09:22:47.764Z,5148.00
2018-11-06T09:23:47.634Z,5180.00
2018-11-06T09:25:40.302Z,5248.00
2018-11-06T09:26:40.196Z,5192.00
2018-11-06T09:28:33.872Z,5188.00
2018-11-06T09:29:33.748Z,5144.00
2018-11-06T09:31:26.442Z,5004.00
2018-11-06T09:32:26.329Z,4872.00
2018-11-06T09:34:19.016Z,4504.00
2018-11-06T09:35:18.889Z,4212.00
2018-11-06T09:37:11.623Z,3736.00
2018-11-06T09:38:11.521Z,3524.00
2018-11-06T09:40:04.213Z,3184.00
2018-11-06T09:41:04.082Z,3064.00
2018-11-06T09:42:56.747Z,2896.00
2018-11-06T09:43:56.636Z,2828.00
2018-11-06T09:45:49.319Z,2720.00
2018-11-06T09:46:49.197Z,2588.00
2018-11-06T09:48:41.864Z,2552.00
2018-11-06T09:49:41.762Z,2536.00
2018-11-06T09:51:34.969Z,2684.00
2018-11-06T09:52:34.843Z,2580.00
2018-11-06T09:54:27.513Z,2636.00
2018-11-06T09:55:27.405Z,2664.00
2018-11-06T09:57:20.096Z,2644.00
2018-11-06T09:58:19.967Z,2708.00
2018-11-06T10:00:12.671Z,2864.00
2018-11-06T10:01:12.526Z,2948.00
2018-11-06T10:03:05.233Z,3144.00
2018-11-06T10:04:05.100Z,3244.00
2018-11-06T10:05:57.777Z,3488.00
2018-11-06T10:06:58.033Z,3660.00
2018-11-06T10:08:50.358Z,3984.00
2018-11-06T10:09:50.238Z,4240.00
2018-11-06T10:11:42.917Z,4544.00
2018-11-06T10:12:42.808Z,4704.00
2018-11-06T10:14:35.497Z,4912.00
2018-11-06T10:15:35.396Z,5024.00
2018-11-06T10:17:28.099Z,5192.00
2018-11-06T10:18:27.939Z,5220.00
2018-11-06T10:20:20.619Z,5052.00
2018-11-06T10:21:20.515Z,4896.00
2018-11-06T10:23:13.181Z,4624.00
2018-11-06T10:24:13.073Z,4512.00
2018-11-06T10:26:05.757Z,4232.00
2018-11-06T10:27:05.637Z,4232.00
2018-11-06T10:28:58.306Z,4144.00
2018-11-06T10:29:58.214Z,4156.00
2018-11-06T10:31:50.899Z,4288.00
2018-11-06T10:32:50.768Z,4212.00
2018-11-06T10:34:43.469Z,4248.00
2018-11-06T10:35:43.341Z,4260.00
2018-11-06T10:37:36.187Z,4420.00
2018-11-06T10:38:35.909Z,4496.00
2018-11-06T10:40:29.597Z,4584.00
2018-11-06T10:41:29.481Z,4640.00
2018-11-06T10:43:22.179Z,4956.00
2018-11-06T10:44:22.044Z,4912.00
2018-11-06T10:46:14.722Z,4752.00
2018-11-06T10:47:14.621Z,4716.00
2018-11-06T10:49:07.295Z,4740.00
2018-11-06T10:50:07.178Z,4652.00
2018-11-06T10:51:59.851Z,4408.00
2018-11-06T10:52:59.746Z,4220.00
2018-11-06T10:54:52.435Z,3820.00
2018-11-06T10:55:52.315Z,3648.00
2018-11-06T10:57:44.991Z,3536.00
2018-11-06T10:58:44.886Z,3604.00
2018-11-06T11:00:37.574Z,3976.00
2018-11-06T11:01:37.448Z,4088.00
2018-11-06T11:03:30.131Z,4320.00
2018-11-06T11:04:30.021Z,4560.00
2018-11-06T11:06:22.711Z,5164.00
2018-11-06T11:07:22.589Z,4948.00
2018-11-06T11:09:16.263Z,5016.00
2018-11-06T11:10:16.159Z,4884.00
2018-11-06T11:12:08.851Z,5024.00
2018-11-06T11:13:08.731Z,5180.00
2018-11-06T11:15:01.403Z,5288.00
2018-11-06T11:16:01.296Z,5412.00
2018-11-06T11:17:53.997Z,5092.00
2018-11-06T11:18:53.868Z,5036.00
2018-11-06T11:20:46.545Z,4920.00
2018-11-06T11:21:46.431Z,4680.00
2018-11-06T11:23:39.131Z,4368.00
2018-11-06T11:24:39.006Z,4352.00
2018-11-06T11:26:31.679Z,4248.00
2018-11-06T11:27:31.576Z,4248.00
2018-11-06T11:29:24.348Z,4232.00
2018-11-06T11:30:24.218Z,4164.00
2018-11-06T11:32:16.888Z,4248.00
2018-11-06T11:33:16.779Z,4188.00
2018-11-06T11:35:09.504Z,4156.00
2018-11-06T11:36:09.364Z,4188.00
2018-11-06T11:38:02.035Z,4044.00
2018-11-06T11:39:01.933Z,4004.00
2018-11-06T11:40:54.621Z,4168.00
2018-11-06T11:41:54.501Z,4224.00
2018-11-06T11:43:47.180Z,4464.00
2018-11-06T11:44:47.076Z,4424.00
2018-11-06T11:46:39.827Z,4340.00
2018-11-06T11:47:39.649Z,4232.00
2018-11-06T11:49:32.336Z,4148.00
2018-11-06T11:50:32.227Z,4228.00
2018-11-06T11:52:24.921Z,4340.00
2018-11-06T11:53:24.796Z,4348.00
2018-11-06T11:55:17.465Z,4244.00
2018-11-06T11:56:17.362Z,4188.00
2018-11-06T11:58:10.059Z,4132.00
2018-11-06T11:59:09.935Z,4096.00
2018-11-06T12:01:02.619Z,4044.00
2018-11-06T12:02:02.560Z,4024.00
2018-11-06T12:03:55.200Z,4060.00
2018-11-06T12:04:55.073Z,4140.00
2018-11-06T12:06:47.754Z,4308.00
2018-11-06T12:07:47.643Z,4448.00
2018-11-06T12:09:40.366Z,4772.00
2018-11-06T12:10:40.238Z,4964.00
2018-11-06T12:12:32.915Z,5304.00
2018-11-06T12:13:32.803Z,5440.00
2018-11-06T12:15:25.521Z,5592.00
2018-11-06T12:16:25.373Z,5628.00
2018-11-06T12:18:18.093Z,5632.00
2018-11-06T12:19:17.942Z,5636.00
2018-11-06T12:21:10.677Z,5612.00
2018-11-06T12:22:10.552Z,5620.00
2018-11-06T12:24:03.273Z,5600.00
2018-11-06T12:25:03.249Z,5612.00
2018-11-06T12:26:55.828Z,5612.00
2018-11-06T12:27:55.701Z,5572.00
2018-11-06T12:29:48.375Z,5584.00
2018-11-06T12:30:48.272Z,5648.00
2018-11-06T12:32:41.011Z,5824.00
2018-11-06T12:33:40.855Z,5920.00
2018-11-06T12:35:33.532Z,5972.00
2018-11-06T12:36:33.516Z,5936.00
2018-11-06T12:38:26.169Z,5844.00
2018-11-06T12:39:26.007Z,5800.00
2018-11-06T12:41:19.168Z,5856.00
2018-11-06T12:42:19.066Z,5888.00
2018-11-06T12:44:11.767Z,5936.00
2018-11-06T12:45:11.640Z,5960.00
2018-11-06T12:47:04.316Z,5964.00
2018-11-06T12:48:04.207Z,5968.00
2018-11-06T12:49:57.421Z,5956.00
2018-11-06T12:50:57.298Z,5976.00
2018-11-06T12:52:49.978Z,6060.00
2018-11-06T12:53:49.879Z,6052.00
2018-11-06T12:55:43.077Z,5996.00
2018-11-06T12:56:42.957Z,6096.00
2018-11-06T12:58:35.626Z,6008.00
2018-11-06T12:59:35.526Z,5968.00
2018-11-06T13:01:28.231Z,5780.00
2018-11-06T13:02:28.106Z,5664.00
2018-11-06T13:04:20.780Z,5408.00
2018-11-06T13:05:20.686Z,5284.00
2018-11-06T13:07:13.381Z,5172.00
2018-11-06T13:08:13.256Z,5168.00
2018-11-06T13:10:06.019Z,5152.00
2018-11-06T13:11:05.832Z,5088.00
2018-11-06T13:12:58.526Z,5012.00
2018-11-06T13:13:58.399Z,5012.00
2018-11-06T13:15:51.161Z,4996.00
2018-11-06T13:16:50.996Z,5028.00
2018-11-06T13:18:43.683Z,5020.00
2018-11-06T13:19:43.563Z,4932.00
2018-11-06T13:21:36.246Z,4772.00
2018-11-06T13:22:36.133Z,4680.00
2018-11-06T13:24:28.840Z,4468.00
2018-11-06T13:25:28.761Z,4384.00
2018-11-06T13:27:21.389Z,4276.00
2018-11-06T13:28:21.284Z,4172.00
2018-11-06T13:30:13.985Z,4048.00
2018-11-06T13:31:13.857Z,4028.00
2018-11-06T13:33:06.535Z,3968.00
2018-11-06T13:34:06.423Z,3944.00
2018-11-06T13:35:59.133Z,3876.00
2018-11-06T13:36:58.991Z,3824.00
2018-11-06T13:38:51.674Z,3760.00
2018-11-06T13:39:51.567Z,3696.00
2018-11-06T13:41:44.337Z,3552.00
2018-11-06T13:42:44.312Z,3492.00
2018-11-06T13:44:37.170Z,3432.00
2018-11-06T13:45:36.903Z,3416.00
2018-11-06T13:47:29.485Z,3404.00
2018-11-06T13:48:29.369Z,3396.00
2018-11-06T13:50:22.072Z,3428.00
2018-11-06T13:51:21.942Z,3416.00
2018-11-06T13:53:14.617Z,3424.00
2018-11-06T13:54:14.515Z,3424.00
2018-11-06T13:56:07.209Z,3380.00
2018-11-06T13:57:07.082Z,3300.00
2018-11-06T13:58:59.760Z,3108.00
2018-11-06T13:59:59.660Z,3032.00
2018-11-06T14:01:52.343Z,2956.00
2018-11-06T14:02:52.231Z,2952.00
2018-11-06T14:04:44.903Z,2944.00
2018-11-06T14:05:44.800Z,2968.00
2018-11-06T14:07:37.490Z,2996.00
2018-11-06T14:08:37.360Z,3012.00
2018-11-06T14:10:30.051Z,3028.00
2018-11-06T14:11:29.943Z,3036.00
2018-11-06T14:13:22.633Z,3056.00
2018-11-06T14:14:22.511Z,3056.00
2018-11-06T14:16:15.193Z,3064.00
2018-11-06T14:17:15.114Z,3048.00
2018-11-06T14:19:07.796Z,3020.00
2018-11-06T14:20:07.658Z,3004.00
2018-11-06T14:22:00.341Z,2944.00
2018-11-06T14:23:00.244Z,2916.00
2018-11-06T14:24:52.933Z,2820.00
2018-11-06T14:25:52.810Z,2756.00
2018-11-06T14:27:45.514Z,2692.00
2018-11-06T14:28:45.378Z,2668.00
2018-11-06T14:30:38.053Z,2604.00
2018-11-06T14:31:37.945Z,2584.00
2018-11-06T14:33:30.644Z,2576.00
2018-11-06T14:34:30.520Z,2536.00
2018-11-06T14:36:23.201Z,2452.00
2018-11-06T14:37:23.091Z,2420.00
2018-11-06T14:39:15.787Z,2364.00
2018-11-06T14:40:15.658Z,2340.00
2018-11-06T14:42:08.606Z,2288.00
2018-11-06T14:43:08.440Z,2248.00
2018-11-06T14:45:01.137Z,2148.00
2018-11-06T14:46:01.004Z,2080.00
2018-11-06T14:47:53.954Z,1976.00
2018-11-06T14:48:53.628Z,1924.00
2018-11-06T14:50:46.267Z,1856.00
2018-11-06T14:51:46.143Z,1828.00
2018-11-06T14:53:38.852Z,1776.00
2018-11-06T14:54:38.716Z,1748.00
2018-11-06T14:56:31.407Z,1668.00
2018-11-06T14:57:31.288Z,1616.00
2018-11-06T14:59:23.963Z,1552.00
2018-11-06T15:00:23.867Z,1528.00
2018-11-06T15:02:16.557Z,1460.00
2018-11-06T15:03:16.423Z,1432.00
2018-11-06T15:05:09.100Z,1376.00
2018-11-06T15:06:08.989Z,1328.00
2018-11-06T15:08:01.684Z,1236.00
2018-11-06T15:09:01.558Z,1184.00
2018-11-06T15:10:54.234Z,1132.00
2018-11-06T15:11:54.126Z,1108.00
2018-11-06T15:13:46.823Z,1048.00
2018-11-06T15:14:46.695Z,1012.00
2018-11-06T15:16:39.369Z,940.00
2018-11-06T15:17:39.259Z,916.00
2018-11-06T15:19:31.959Z,840.00
2018-11-06T15:20:31.825Z,808.00
2018-11-06T15:22:24.499Z,736.00
2018-11-06T15:23:24.390Z,708.00
2018-11-06T15:25:17.086Z,656.00
2018-11-06T15:26:16.986Z,628.00
2018-11-06T15:28:09.634Z,576.00
2018-11-06T15:29:09.529Z,552.00
2018-11-06T15:31:02.216Z,516.00
2018-11-06T15:32:02.123Z,492.00
2018-11-06T15:33:54.769Z,452.00
2018-11-06T15:34:54.658Z,428.00
2018-11-06T15:36:47.348Z,396.00
2018-11-06T15:37:47.222Z,380.00
2018-11-06T15:39:39.932Z,344.00
2018-11-06T15:40:39.796Z,320.00
2018-11-06T15:42:32.491Z,280.00
2018-11-06T15:43:32.360Z,260.00
2018-11-06T15:45:25.036Z,220.00
2018-11-06T15:46:25.562Z,200.00
2018-11-06T15:48:17.627Z,172.00
2018-11-06T15:49:17.533Z,160.00
2018-11-06T15:51:10.190Z,144.00
2018-11-06T15:52:10.065Z,132.00
2018-11-06T15:54:02.754Z,112.00
2018-11-06T15:55:02.633Z,100.00
2018-11-06T15:56:55.308Z,88.00
2018-11-06T15:57:55.198Z,80.00
2018-11-06T15:59:47.880Z,64.00
2018-11-06T16:00:47.794Z,56.00
2018-11-06T16:02:40.441Z,48.00
2018-11-06T16:03:40.328Z,40.00
2018-11-06T16:05:33.023Z,32.00
2018-11-06T16:06:32.904Z,28.00
2018-11-06T16:08:25.680Z,20.00
2018-11-06T16:09:26.531Z,20.00
2018-11-06T16:11:18.155Z,12.00
2018-11-06T16:12:18.600Z,12.00
2018-11-06T16:14:10.702Z,24.00
2018-11-06T16:15:10.632Z,24.00
2018-11-06T16:17:03.285Z,20.00
2018-11-06T16:18:03.169Z,24.00
2018-11-06T16:19:55.835Z,20.00
2018-11-06T16:20:55.749Z,20.00
2018-11-06T16:22:48.416Z,16.00
2018-11-06T16:23:48.292Z,16.00
2018-11-06T16:25:40.967Z,20.00
2018-11-06T16:26:40.858Z,20.00
2018-11-06T16:28:33.544Z,20.00
2018-11-06T16:29:33.461Z,16.00
2018-11-06T16:31:26.098Z,16.00
2018-11-06T16:32:25.985Z,16.00
2018-11-06T16:34:18.673Z,16.00
2018-11-06T16:35:18.554Z,16.00
2018-11-06T16:37:11.217Z,16.00
2018-11-06T16:38:11.109Z,16.00
2018-11-06T16:40:03.805Z,16.00
2018-11-06T16:41:03.685Z,16.00
2018-11-06T16:42:56.352Z,16.00
2018-11-06T16:43:56.230Z,16.00
2018-11-06T16:45:48.923Z,16.00
2018-11-06T16:46:48.805Z,16.00
2018-11-06T16:48:41.483Z,16.00
2018-11-06T16:49:41.367Z,16.00
2018-11-06T16:51:34.057Z,16.00
2018-11-06T16:52:33.932Z,16.00
2018-11-06T16:54:26.630Z,16.00
2018-11-06T16:55:26.491Z,16.00
2018-11-06T16:57:19.161Z,16.00
2018-11-06T16:58:19.057Z,16.00
2018-11-06T17:00:11.881Z,16.00
2018-11-06T17:01:11.769Z,16.00
2018-11-06T17:03:04.297Z,16.00
2018-11-06T17:04:04.192Z,16.00
2018-11-06T17:05:56.871Z,16.00
2018-11-06T17:06:56.752Z,16.00
2018-11-06T17:08:49.439Z,16.00
2018-11-06T17:09:49.331Z,16.00
2018-11-06T17:11:42.524Z,16.00
2018-11-06T17:12:42.402Z,16.00
2018-11-06T17:14:35.072Z,16.00
2018-11-06T17:15:34.978Z,16.00
2018-11-06T17:17:28.225Z,16.00
2018-11-06T17:18:28.070Z,16.00
2018-11-06T17:20:21.331Z,16.00
2018-11-06T17:21:21.057Z,16.00
2018-11-06T17:23:17.086Z,16.00
2018-11-06T17:24:13.669Z,16.00
2018-11-06T17:26:06.353Z,16.00
2018-11-06T17:27:06.242Z,16.00
2018-11-06T17:28:58.933Z,16.00
2018-11-06T17:29:58.808Z,16.00
2018-11-06T17:31:52.044Z,16.00
2018-11-06T17:32:51.766Z,16.00
2018-11-06T17:34:44.159Z,16.00
2018-11-06T17:35:44.053Z,16.00
2018-11-06T17:37:36.754Z,16.00
2018-11-06T17:38:36.636Z,16.00
2018-11-06T17:40:29.298Z,16.00
2018-11-06T17:41:29.188Z,16.00
2018-11-06T17:43:21.872Z,16.00
2018-11-06T17:44:21.745Z,16.00
2018-11-06T17:46:14.414Z,16.00
2018-11-06T17:47:14.311Z,16.00
2018-11-06T17:49:07.004Z,16.00
2018-11-06T17:50:06.876Z,16.00
2018-11-06T17:51:59.574Z,16.00
2018-11-06T17:52:59.437Z,16.00
2018-11-06T17:54:52.129Z,16.00
2018-11-06T17:55:52.015Z,16.00
2018-11-06T17:57:44.695Z,16.00
2018-11-06T17:58:44.564Z,16.00
2018-11-06T18:00:37.232Z,16.00
2018-11-06T18:01:37.130Z,16.00
2018-11-06T18:03:29.817Z,16.00
2018-11-06T18:04:29.810Z,16.00
2018-11-06T18:06:22.361Z,16.00
2018-11-06T18:07:22.250Z,16.00
2018-11-06T18:09:14.939Z,16.00
2018-11-06T18:10:14.833Z,16.00
2018-11-06T18:12:07.490Z,16.00
2018-11-06T18:13:07.385Z,16.00
2018-11-06T18:15:00.106Z,16.00
2018-11-06T18:15:59.956Z,16.00
2018-11-06T18:17:52.778Z,16.00
2018-11-06T18:18:52.515Z,16.00
2018-11-06T18:20:45.206Z,16.00
2018-11-06T18:21:45.074Z,16.00
2018-11-06T18:23:37.773Z,16.00
2018-11-06T18:24:37.668Z,16.00
2018-11-06T18:26:30.310Z,16.00
2018-11-06T18:27:30.205Z,16.00
2018-11-06T18:29:22.893Z,16.00
2018-11-06T18:30:22.806Z,16.00
2018-11-06T18:32:15.489Z,16.00
2018-11-06T18:33:15.337Z,16.00
2018-11-06T18:35:08.014Z,16.00
2018-11-06T18:36:07.891Z,16.00
2018-11-06T18:38:00.563Z,16.00
2018-11-06T18:39:00.507Z,16.00
2018-11-06T18:40:53.165Z,16.00
2018-11-06T18:41:53.019Z,16.00
2018-11-06T18:43:45.698Z,16.00
2018-11-06T18:44:45.578Z,16.00
2018-11-06T18:46:38.267Z,16.00
2018-11-06T18:47:38.197Z,16.00
2018-11-06T18:49:30.888Z,16.00
2018-11-06T18:50:30.713Z,16.00
2018-11-06T18:52:23.395Z,16.00
2018-11-06T18:53:23.292Z,16.00
2018-11-06T18:55:15.959Z,16.00
2018-11-06T18:56:15.840Z,16.00
2018-11-06T18:58:08.587Z,16.00
2018-11-06T18:59:08.401Z,16.00
2018-11-06T19:01:01.072Z,16.00
2018-11-06T19:02:00.964Z,16.00
2018-11-06T19:03:53.654Z,16.00
2018-11-06T19:04:53.522Z,16.00
2018-11-06T19:06:46.196Z,16.00
2018-11-06T19:07:46.098Z,16.00
2018-11-06T19:09:38.776Z,16.00
2018-11-06T19:10:38.708Z,16.00
2018-11-06T19:12:31.309Z,16.00
2018-11-06T19:13:31.200Z,16.00
2018-11-06T19:15:23.898Z,16.00
2018-11-06T19:16:23.803Z,16.00
2018-11-06T19:18:16.491Z,16.00
2018-11-06T19:19:16.614Z,16.00
2018-11-06T19:21:09.017Z,16.00
2018-11-06T19:22:09.002Z,16.00
2018-11-06T19:24:01.672Z,16.00
2018-11-06T19:25:01.464Z,16.00
2018-11-06T19:26:54.144Z,16.00
2018-11-06T19:27:54.037Z,16.00
2018-11-06T19:29:46.731Z,16.00
2018-11-06T19:30:46.623Z,16.00
2018-11-06T19:32:39.315Z,16.00
2018-11-06T19:33:39.191Z,16.00
2018-11-06T19:35:31.853Z,16.00
2018-11-06T19:36:31.766Z,16.00
2018-11-06T19:38:24.396Z,16.00
2018-11-06T19:39:24.293Z,16.00
2018-11-06T19:41:16.973Z,16.00
2018-11-06T19:42:16.850Z,16.00
2018-11-06T19:44:09.536Z,16.00
2018-11-06T19:45:09.424Z,16.00
2018-11-06T19:47:03.101Z,16.00
2018-11-06T19:48:02.975Z,16.00
2018-11-06T19:49:55.652Z,16.00
2018-11-06T19:50:55.534Z,16.00
2018-11-06T19:52:48.301Z,16.00
2018-11-06T19:53:48.197Z,16.00
2018-11-06T19:55:40.767Z,16.00
2018-11-06T19:56:40.715Z,16.00
2018-11-06T19:58:33.836Z,16.00
2018-11-06T19:59:33.731Z,16.00
2018-11-06T20:01:26.420Z,16.00
2018-11-06T20:02:26.312Z,16.00
2018-11-06T20:04:18.995Z,16.00
2018-11-06T20:05:18.920Z,16.00
2018-11-06T20:07:11.684Z,16.00
2018-11-06T20:08:11.467Z,16.00
2018-11-06T20:10:04.663Z,16.00
2018-11-06T20:11:04.539Z,16.00
2018-11-06T20:12:57.310Z,16.00
2018-11-06T20:13:57.204Z,16.00
2018-11-06T20:15:50.417Z,16.00
2018-11-06T20:16:49.782Z,16.00
2018-11-06T20:18:43.451Z,16.00
2018-11-06T20:19:43.434Z,16.00
2018-11-06T20:21:37.750Z,16.00
2018-11-06T20:22:36.502Z,16.00
2018-11-06T20:24:29.166Z,16.00
2018-11-06T20:25:29.052Z,16.00
2018-11-06T20:27:21.836Z,16.00
2018-11-06T20:28:21.752Z,16.00
2018-11-06T20:30:14.278Z,16.00
2018-11-06T20:31:14.169Z,16.00
2018-11-06T20:33:06.936Z,16.00
2018-11-06T20:34:06.757Z,16.00
2018-11-06T20:35:59.941Z,16.00
2018-11-06T20:36:59.799Z,16.00
2018-11-06T20:38:52.465Z,16.00
2018-11-06T20:39:52.362Z,16.00
2018-11-06T20:41:45.045Z,16.00
2018-11-06T20:42:44.989Z,16.00
2018-11-06T20:44:37.618Z,16.00
2018-11-06T20:45:37.478Z,16.00
2018-11-06T20:47:30.160Z,16.00
2018-11-06T20:48:30.037Z,16.00
2018-11-06T20:50:22.718Z,16.00
2018-11-06T20:51:22.598Z,16.00
2018-11-06T20:53:15.816Z,16.00
2018-11-06T20:54:15.665Z,16.00
2018-11-06T20:56:08.446Z,16.00
2018-11-06T20:57:08.237Z,16.00
2018-11-06T20:59:00.938Z,16.00
2018-11-06T21:00:00.865Z,16.00
2018-11-06T21:01:53.484Z,16.00
2018-11-06T21:02:53.369Z,16.00
2018-11-06T21:04:46.055Z,16.00
2018-11-06T21:05:45.949Z,16.00
2018-11-06T21:07:38.596Z,16.00
2018-11-06T21:08:38.544Z,16.00
2018-11-06T21:10:31.197Z,16.00
2018-11-06T21:11:31.075Z,16.00
2018-11-06T21:13:23.868Z,16.00
2018-11-06T21:14:23.650Z,16.00
2018-11-06T21:16:16.476Z,16.00
2018-11-06T21:17:16.205Z,16.00
2018-11-06T21:19:08.881Z,0.00
2018-11-06T21:20:08.777Z,0.00
2018-11-06T21:22:01.413Z,0.00
2018-11-06T21:23:01.310Z,0.00
2018-11-06T21:24:54.073Z,0.00
2018-11-06T21:25:54.070Z,0.00
2018-11-06T21:27:46.549Z,0.00
2018-11-06T21:28:46.447Z,0.00
2018-11-06T21:30:39.134Z,0.00
2018-11-06T21:31:38.993Z,0.00
2018-11-06T21:33:31.667Z,0.00
2018-11-06T21:34:31.558Z,0.00
2018-11-06T21:36:24.248Z,0.00
2018-11-06T21:37:24.109Z,0.00
2018-11-06T21:39:16.860Z,0.00
2018-11-06T21:40:16.661Z,0.00
2018-11-06T21:42:09.504Z,0.00
2018-11-06T21:43:09.218Z,0.00
2018-11-06T21:45:01.890Z,0.00
2018-11-06T21:46:01.780Z,0.00
2018-11-06T21:47:54.468Z,0.00
2018-11-06T21:48:54.334Z,0.00
2018-11-06T21:50:47.658Z,0.00
2018-11-06T21:51:47.519Z,0.00
2018-11-06T21:53:40.188Z,0.00
2018-11-06T21:54:40.116Z,0.00
2018-11-06T21:56:32.754Z,0.00
2018-11-06T21:57:32.633Z,0.00
2018-11-06T21:59:25.301Z,0.00
2018-11-06T22:02:17.868Z,0.00
2018-11-06T22:03:17.748Z,0.00
2018-11-06T22:05:10.907Z,0.00
2018-11-06T22:06:10.801Z,0.00
2018-11-06T22:08:03.476Z,0.00
2018-11-06T22:09:03.347Z,0.00
2018-11-06T22:10:56.015Z,0.00
2018-11-06T22:11:55.937Z,0.00
2018-11-06T22:13:48.590Z,0.00
2018-11-06T22:14:48.467Z,0.00
2018-11-06T22:16:41.138Z,0.00
2018-11-06T22:17:41.021Z,0.00
2018-11-06T22:19:33.721Z,0.00
2018-11-06T22:20:33.590Z,0.00
2018-11-06T22:22:26.382Z,0.00
2018-11-06T22:23:26.149Z,0.00
2018-11-06T22:25:18.831Z,0.00
2018-11-06T22:26:18.700Z,0.00
2018-11-06T22:28:11.384Z,0.00
2018-11-06T22:29:11.253Z,0.00
2018-11-06T22:31:03.921Z,0.00
2018-11-06T22:32:03.831Z,0.00
2018-11-06T22:33:56.987Z,0.00
2018-11-06T22:34:56.863Z,0.00
2018-11-06T22:36:49.559Z,0.00
2018-11-06T22:37:49.420Z,0.00
2018-11-06T22:39:42.094Z,0.00
2018-11-06T22:40:41.976Z,0.00
2018-11-06T22:42:34.634Z,0.00
2018-11-06T22:43:34.520Z,0.00
2018-11-06T22:45:27.199Z,0.00
2018-11-06T22:46:27.078Z,0.00
2018-11-06T22:48:19.778Z,0.00
2018-11-06T22:49:19.638Z,0.00
2018-11-06T22:51:12.839Z,0.00
2018-11-06T22:52:12.706Z,0.00
2018-11-06T22:54:05.376Z,0.00
2018-11-06T22:55:05.265Z,0.00
2018-11-06T22:56:57.951Z,0.00
2018-11-06T22:57:57.819Z,0.00
2018-11-06T22:59:50.483Z,0.00
